createdAt,value
2019-03-05T00:00:28.754Z,60.90
2019-03-05T00:02:01.151Z,60.90
2019-03-05T00:03:33.723Z,61.40
2019-03-05T00:05:06.203Z,61.00
2019-03-05T00:06:38.537Z,60.90
2019-03-05T00:08:10.939Z,60.90
2019-03-05T00:09:43.403Z,60.90
2019-03-05T00:11:15.819Z,60.90
2019-03-05T00:12:48.153Z,61.00
2019-03-05T00:14:20.620Z,61.10
2019-03-05T00:15:52.955Z,61.10
2019-03-05T00:17:25.346Z,61.10
2019-03-05T00:18:57.743Z,61.10
2019-03-05T00:20:30.102Z,61.10
2019-03-05T00:22:02.454Z,61.10
2019-03-05T00:23:34.851Z,61.10
2019-03-05T00:25:07.195Z,61.20
2019-03-05T00:26:39.682Z,61.20
2019-03-05T00:28:12.074Z,61.30
2019-03-05T00:29:44.404Z,61.50
2019-03-05T00:31:16.743Z,61.40
2019-03-05T00:32:49.139Z,61.40
2019-03-05T00:34:21.467Z,61.50
2019-03-05T00:35:53.870Z,61.50
2019-03-05T00:37:26.327Z,61.60
2019-03-05T00:38:58.729Z,61.90
2019-03-05T00:40:31.123Z,61.90
2019-03-05T00:42:03.562Z,61.80
2019-03-05T00:43:35.967Z,61.80
2019-03-05T00:45:08.285Z,61.80
2019-03-05T00:46:40.690Z,62.00
2019-03-05T00:48:13.035Z,61.90
2019-03-05T00:49:45.442Z,62.70
2019-03-05T00:51:24.893Z,62.00
2019-03-05T00:52:51.947Z,61.90
2019-03-05T00:54:24.473Z,62.00
2019-03-05T00:55:56.936Z,62.10
2019-03-05T00:57:29.259Z,62.00
2019-03-05T00:59:01.680Z,63.00
2019-03-05T01:00:34.146Z,62.10
2019-03-05T01:02:06.470Z,62.10
2019-03-05T01:03:38.862Z,62.20
2019-03-05T01:05:11.278Z,62.30
2019-03-05T01:06:43.674Z,62.20
2019-03-05T01:08:16.070Z,62.30
2019-03-05T01:09:48.554Z,62.30
2019-03-05T01:11:20.976Z,62.30
2019-03-05T01:12:53.372Z,62.30
2019-03-05T01:14:25.846Z,62.30
2019-03-05T01:15:58.198Z,62.30
2019-03-05T01:17:30.720Z,62.40
2019-03-05T01:19:03.150Z,62.30
2019-03-05T01:20:35.495Z,62.40
2019-03-05T01:22:07.913Z,62.30
2019-03-05T01:23:40.305Z,62.40
2019-03-05T01:25:12.643Z,62.40
2019-03-05T01:26:45.262Z,62.40
2019-03-05T01:28:17.584Z,62.40
2019-03-05T01:29:49.905Z,62.40
2019-03-05T01:31:22.244Z,62.30
2019-03-05T01:32:54.718Z,62.40
2019-03-05T01:34:27.043Z,62.30
2019-03-05T01:35:59.515Z,62.30
2019-03-05T01:37:31.999Z,61.80
2019-03-05T01:39:04.407Z,62.30
2019-03-05T01:40:36.803Z,62.30
2019-03-05T01:42:09.220Z,62.30
2019-03-05T01:43:41.623Z,62.30
2019-03-05T01:45:14.020Z,62.30
2019-03-05T01:46:46.431Z,62.40
2019-03-05T01:48:18.763Z,62.30
2019-03-05T01:49:51.230Z,62.40
2019-03-05T01:51:23.644Z,62.40
2019-03-05T01:52:56.070Z,62.40
2019-03-05T01:54:28.475Z,62.50
2019-03-05T01:56:00.803Z,62.40
2019-03-05T01:57:33.233Z,62.40
2019-03-05T01:59:05.702Z,62.50
2019-03-05T02:00:38.090Z,62.50
2019-03-05T02:02:10.439Z,62.50
2019-03-05T02:03:42.866Z,62.50
2019-03-05T02:05:15.195Z,62.60
2019-03-05T02:06:47.524Z,62.60
2019-03-05T02:08:19.950Z,62.60
2019-03-05T02:09:52.435Z,62.60
2019-03-05T02:11:24.980Z,62.70
2019-03-05T02:12:57.324Z,62.70
2019-03-05T02:14:29.735Z,62.80
2019-03-05T02:16:02.062Z,62.70
2019-03-05T02:17:34.474Z,62.70
2019-03-05T02:19:06.879Z,62.70
2019-03-05T02:20:39.217Z,62.80
2019-03-05T02:22:11.608Z,62.80
2019-03-05T02:23:44.190Z,62.90
2019-03-05T02:25:16.594Z,62.90
2019-03-05T02:26:48.914Z,62.80
2019-03-05T02:28:21.314Z,62.80
2019-03-05T02:29:53.669Z,62.80
2019-03-05T02:31:26.005Z,62.80
2019-03-05T02:32:58.470Z,62.90
2019-03-05T02:34:30.899Z,62.80
2019-03-05T02:36:03.362Z,62.80
2019-03-05T02:37:35.760Z,62.80
2019-03-05T02:39:08.155Z,62.90
2019-03-05T02:40:40.571Z,62.70
2019-03-05T02:42:12.980Z,62.70
2019-03-05T02:43:45.379Z,62.80
2019-03-05T02:45:17.860Z,62.70
2019-03-05T02:46:50.334Z,62.70
2019-03-05T02:48:22.731Z,62.60
2019-03-05T02:49:55.229Z,62.70
2019-03-05T02:51:28.212Z,62.70
2019-03-05T02:53:00.714Z,62.70
2019-03-05T02:54:33.167Z,62.60
2019-03-05T02:56:05.560Z,62.70
2019-03-05T02:57:37.955Z,63.40
2019-03-05T02:59:10.350Z,62.60
2019-03-05T03:00:42.696Z,62.60
2019-03-05T03:02:17.990Z,62.60
2019-03-05T03:03:50.391Z,62.60
2019-03-05T03:05:22.885Z,62.60
2019-03-05T03:06:55.310Z,62.60
2019-03-05T03:08:27.794Z,62.50
2019-03-05T03:10:00.325Z,62.60
2019-03-05T03:11:32.683Z,62.60
2019-03-05T03:13:05.087Z,62.60
2019-03-05T03:14:37.557Z,62.70
2019-03-05T03:16:09.976Z,62.70
2019-03-05T03:17:42.701Z,62.70
2019-03-05T03:19:15.150Z,62.70
2019-03-05T03:20:47.547Z,63.40
2019-03-05T03:23:47.768Z,62.70
2019-03-05T03:25:38.388Z,62.70
2019-03-05T03:27:29.299Z,62.70
2019-03-05T03:29:20.495Z,62.60
2019-03-05T03:31:11.618Z,62.60
2019-03-05T03:33:02.083Z,62.60
2019-03-05T03:34:52.407Z,62.60
2019-03-05T03:36:24.808Z,62.60
2019-03-05T03:37:57.333Z,62.50
2019-03-05T03:39:29.794Z,62.60
2019-03-05T03:41:17.058Z,62.60
2019-03-05T03:42:49.566Z,62.70
2019-03-05T03:44:21.898Z,62.70
2019-03-05T03:45:54.373Z,62.70
2019-03-05T03:47:26.854Z,62.70
2019-03-05T03:48:59.268Z,62.70
2019-03-05T03:50:31.669Z,62.60
2019-03-05T03:52:04.245Z,62.60
2019-03-05T03:53:36.739Z,62.60
2019-03-05T03:55:09.248Z,62.60
2019-03-05T03:56:41.716Z,62.60
2019-03-05T03:58:14.212Z,62.60
2019-03-05T03:59:46.608Z,62.50
2019-03-05T04:01:19.008Z,62.40
2019-03-05T04:02:51.479Z,62.40
2019-03-05T04:04:23.979Z,62.40
2019-03-05T04:05:56.307Z,62.30
2019-03-05T04:07:28.712Z,62.30
2019-03-05T04:09:01.067Z,62.10
2019-03-05T04:10:33.557Z,62.10
2019-03-05T04:12:06.316Z,62.00
2019-03-05T04:13:38.738Z,61.80
2019-03-05T04:15:11.171Z,61.80
2019-03-05T04:16:43.648Z,61.70
2019-03-05T04:18:16.221Z,61.70
2019-03-05T04:19:48.707Z,61.60
2019-03-05T04:21:21.108Z,61.50
2019-03-05T04:22:53.431Z,61.40
2019-03-05T04:24:25.838Z,61.40
2019-03-05T04:25:58.318Z,61.40
2019-03-05T04:27:30.642Z,61.20
2019-03-05T04:29:03.033Z,61.20
2019-03-05T04:30:35.514Z,61.10
2019-03-05T04:32:07.844Z,61.10
2019-03-05T04:33:40.314Z,61.10
2019-03-05T04:35:12.805Z,61.00
2019-03-05T04:36:45.214Z,61.00
2019-03-05T04:38:17.603Z,60.90
2019-03-05T04:39:49.994Z,61.60
2019-03-05T04:41:22.334Z,60.80
2019-03-05T04:42:54.736Z,60.80
2019-03-05T04:44:27.186Z,60.80
2019-03-05T04:45:59.607Z,60.80
2019-03-05T04:47:31.927Z,60.80
2019-03-05T04:49:04.319Z,60.80
2019-03-05T04:50:36.654Z,60.70
2019-03-05T04:52:09.075Z,60.70
2019-03-05T04:53:41.756Z,60.60
2019-03-05T04:55:14.163Z,60.70
2019-03-05T04:56:46.654Z,60.70
2019-03-05T04:58:19.406Z,60.60
2019-03-05T04:59:51.854Z,60.70
2019-03-05T05:01:24.333Z,60.60
2019-03-05T05:02:58.467Z,60.70
2019-03-05T05:04:31.003Z,60.70
2019-03-05T05:06:03.398Z,60.70
2019-03-05T05:07:35.746Z,60.60
2019-03-05T05:09:08.075Z,60.80
2019-03-05T05:10:40.467Z,60.70
2019-03-05T05:12:12.888Z,60.70
2019-03-05T05:13:45.214Z,60.80
2019-03-05T05:15:17.615Z,60.70
2019-03-05T05:16:49.944Z,60.80
2019-03-05T05:18:22.359Z,60.70
2019-03-05T05:19:54.836Z,60.70
2019-03-05T05:21:27.241Z,60.80
2019-03-05T05:22:59.671Z,60.70
2019-03-05T05:24:33.495Z,60.80
2019-03-05T05:26:05.863Z,60.90
2019-03-05T05:27:38.250Z,60.90
2019-03-05T05:29:10.609Z,60.90
2019-03-05T05:30:43.009Z,61.00
2019-03-05T05:32:15.455Z,61.00
2019-03-05T05:33:47.810Z,61.90
2019-03-05T05:35:20.277Z,61.10
2019-03-05T05:36:52.687Z,61.10
2019-03-05T05:38:25.516Z,61.10
2019-03-05T05:39:57.977Z,61.20
2019-03-05T05:41:30.463Z,62.00
2019-03-05T05:43:02.928Z,61.20
2019-03-05T05:44:35.547Z,61.20
2019-03-05T05:46:07.954Z,61.20
2019-03-05T05:47:40.402Z,61.40
2019-03-05T05:49:13.094Z,61.40
2019-03-05T05:50:45.533Z,61.40
2019-03-05T05:52:17.936Z,61.30
2019-03-05T05:53:50.591Z,61.40
2019-03-05T05:55:22.988Z,61.40
2019-03-05T05:56:55.455Z,61.40
2019-03-05T05:58:27.827Z,61.40
2019-03-05T06:00:00.335Z,61.40
2019-03-05T06:01:32.806Z,61.50
2019-03-05T06:03:05.411Z,61.40
2019-03-05T06:04:37.847Z,61.50
2019-03-05T06:06:10.347Z,61.50
2019-03-05T06:07:42.825Z,61.50
2019-03-05T06:09:15.212Z,61.50
2019-03-05T06:10:47.911Z,61.40
2019-03-05T06:12:20.348Z,61.40
2019-03-05T06:13:52.747Z,61.40
2019-03-05T06:15:25.195Z,61.40
2019-03-05T06:16:57.651Z,61.40
2019-03-05T06:18:30.110Z,61.40
2019-03-05T06:20:02.591Z,61.40
2019-03-05T06:21:35.099Z,61.40
2019-03-05T06:23:07.446Z,61.40
2019-03-05T06:24:39.864Z,61.40
2019-03-05T06:26:12.255Z,61.40
2019-03-05T06:27:44.657Z,61.50
2019-03-05T06:29:17.069Z,61.50
2019-03-05T06:30:49.551Z,61.40
2019-03-05T06:32:21.981Z,61.40
2019-03-05T06:33:54.434Z,61.40
2019-03-05T06:35:26.898Z,61.40
2019-03-05T06:36:59.240Z,61.40
2019-03-05T06:38:31.884Z,61.40
2019-03-05T06:40:04.286Z,61.40
2019-03-05T06:41:36.648Z,62.30
2019-03-05T06:43:09.042Z,61.40
2019-03-05T06:44:41.446Z,61.40
2019-03-05T06:46:13.916Z,61.30
2019-03-05T06:47:46.327Z,61.30
2019-03-05T06:49:19.108Z,62.10
2019-03-05T06:50:51.485Z,61.30
2019-03-05T06:52:23.991Z,61.30
2019-03-05T06:53:56.315Z,61.20
2019-03-05T06:55:29.957Z,61.20
2019-03-05T06:57:02.491Z,61.20
2019-03-05T06:58:35.002Z,61.20
2019-03-05T07:00:07.410Z,61.10
2019-03-05T07:01:39.890Z,61.20
2019-03-05T07:03:12.387Z,61.10
2019-03-05T07:04:44.807Z,61.00
2019-03-05T07:06:17.288Z,60.90
2019-03-05T07:07:49.704Z,61.00
2019-03-05T07:09:22.068Z,60.90
2019-03-05T07:10:56.974Z,60.80
2019-03-05T07:12:29.280Z,60.80
2019-03-05T07:14:01.912Z,60.90
2019-03-05T07:15:34.239Z,60.70
2019-03-05T07:17:06.642Z,60.70
2019-03-05T07:18:38.971Z,60.60
2019-03-05T07:20:11.407Z,60.60
2019-03-05T07:21:43.807Z,60.60
2019-03-05T07:23:16.153Z,60.60
2019-03-05T07:24:48.646Z,60.60
2019-03-05T07:26:21.059Z,60.60
2019-03-05T07:27:53.463Z,60.50
2019-03-05T07:29:25.862Z,60.50
2019-03-05T07:30:58.215Z,60.50
2019-03-05T07:32:30.562Z,60.50
2019-03-05T07:34:03.046Z,60.50
2019-03-05T07:35:35.486Z,60.50
2019-03-05T07:37:07.895Z,60.40
2019-03-05T07:38:40.383Z,60.30
2019-03-05T07:40:12.826Z,60.30
2019-03-05T07:41:45.307Z,60.40
2019-03-05T07:43:18.223Z,60.20
2019-03-05T07:44:50.700Z,60.20
2019-03-05T07:46:23.124Z,60.30
2019-03-05T07:47:55.603Z,60.20
2019-03-05T07:49:28.006Z,60.20
2019-03-05T07:51:00.418Z,60.20
2019-03-05T07:52:32.975Z,60.10
2019-03-05T07:54:05.525Z,60.20
2019-03-05T07:55:37.898Z,60.10
2019-03-05T07:57:10.410Z,60.10
2019-03-05T07:58:42.882Z,60.10
2019-03-05T08:00:15.287Z,60.00
2019-03-05T08:01:47.799Z,60.00
2019-03-05T08:03:20.292Z,59.90
2019-03-05T08:04:52.802Z,59.90
2019-03-05T08:06:26.608Z,59.90
2019-03-05T08:07:59.114Z,59.80
2019-03-05T08:09:31.525Z,59.90
2019-03-05T08:11:04.009Z,59.70
2019-03-05T08:12:44.306Z,59.70
2019-03-05T08:14:14.067Z,59.70
2019-03-05T08:15:46.499Z,60.40
2019-03-05T08:17:18.987Z,59.60
2019-03-05T08:18:51.431Z,59.60
2019-03-05T08:20:24.021Z,60.20
2019-03-05T08:21:56.492Z,59.50
2019-03-05T08:23:28.854Z,59.40
2019-03-05T08:25:01.419Z,60.00
2019-03-05T08:26:34.040Z,59.30
2019-03-05T08:28:06.440Z,59.30
2019-03-05T08:29:38.835Z,59.20
2019-03-05T08:31:11.243Z,59.10
2019-03-05T08:32:43.730Z,59.10
2019-03-05T08:34:16.215Z,59.00
2019-03-05T08:35:48.678Z,58.90
2019-03-05T08:37:21.219Z,58.80
2019-03-05T08:38:53.854Z,58.80
2019-03-05T08:40:26.268Z,58.60
2019-03-05T08:41:58.764Z,58.40
2019-03-05T08:43:31.217Z,58.40
2019-03-05T08:45:03.834Z,58.30
2019-03-05T08:46:36.213Z,58.40
2019-03-05T08:48:08.855Z,58.20
2019-03-05T08:49:41.294Z,58.20
2019-03-05T08:51:13.634Z,58.20
2019-03-05T08:52:46.030Z,58.00
2019-03-05T08:54:18.535Z,57.90
2019-03-05T08:55:51.071Z,57.80
2019-03-05T08:57:23.511Z,57.60
2019-03-05T08:58:55.999Z,57.50
2019-03-05T09:00:28.486Z,57.40
2019-03-05T09:02:01.115Z,57.20
2019-03-05T09:03:33.751Z,57.00
2019-03-05T09:05:06.246Z,56.90
2019-03-05T09:06:38.671Z,56.70
2019-03-05T09:08:11.007Z,56.70
2019-03-05T09:09:43.681Z,56.60
2019-03-05T09:11:16.173Z,56.30
2019-03-05T09:12:48.776Z,56.20
2019-03-05T09:14:21.183Z,56.10
2019-03-05T09:15:53.917Z,56.00
2019-03-05T09:17:26.390Z,55.90
2019-03-05T09:18:58.882Z,55.70
2019-03-05T09:20:31.487Z,55.80
2019-03-05T09:22:03.888Z,55.40
2019-03-05T09:23:36.567Z,55.20
2019-03-05T09:25:09.115Z,55.10
2019-03-05T09:26:50.716Z,55.00
2019-03-05T09:28:16.735Z,54.90
2019-03-05T09:29:49.139Z,54.90
2019-03-05T09:31:21.623Z,54.90
2019-03-05T09:32:54.213Z,54.80
2019-03-05T09:34:26.649Z,54.80
2019-03-05T09:35:59.063Z,54.70
2019-03-05T09:37:31.502Z,54.60
2019-03-05T09:39:04.068Z,54.50
2019-03-05T09:40:36.555Z,54.40
2019-03-05T09:42:08.979Z,54.20
2019-03-05T09:43:41.540Z,54.20
2019-03-05T09:45:13.957Z,54.10
2019-03-05T09:46:46.431Z,54.00
2019-03-05T09:48:18.908Z,53.90
2019-03-05T09:49:54.207Z,53.90
2019-03-05T09:51:26.807Z,53.80
2019-03-05T09:52:59.288Z,53.60
2019-03-05T09:54:31.698Z,53.50
2019-03-05T09:56:04.091Z,53.60
2019-03-05T09:57:36.631Z,53.50
2019-03-05T09:59:09.090Z,53.40
2019-03-05T10:00:41.503Z,53.40
2019-03-05T10:02:14.004Z,53.30
2019-03-05T10:03:46.439Z,53.10
2019-03-05T10:05:18.843Z,53.20
2019-03-05T10:06:51.259Z,53.20
2019-03-05T10:08:31.959Z,53.20
2019-03-05T10:09:57.803Z,53.20
2019-03-05T10:11:30.266Z,53.20
2019-03-05T10:13:04.257Z,53.10
2019-03-05T10:14:37.156Z,52.80
2019-03-05T10:16:12.791Z,52.70
2019-03-05T10:17:45.267Z,52.50
2019-03-05T10:19:17.724Z,52.50
2019-03-05T10:20:50.204Z,52.40
2019-03-05T10:22:22.688Z,52.30
2019-03-05T10:23:55.111Z,52.10
2019-03-05T10:25:27.517Z,52.00
2019-03-05T10:26:59.986Z,51.90
2019-03-05T10:28:32.539Z,51.60
2019-03-05T10:30:05.015Z,51.40
2019-03-05T10:31:37.531Z,51.20
2019-03-05T10:33:09.970Z,51.00
2019-03-05T10:34:42.479Z,51.10
2019-03-05T10:36:14.931Z,50.80
2019-03-05T10:37:47.338Z,50.60
2019-03-05T10:39:29.990Z,50.50
2019-03-05T10:40:53.938Z,50.40
2019-03-05T10:42:26.347Z,50.20
2019-03-05T10:43:58.959Z,50.00
2019-03-05T10:45:31.434Z,49.80
2019-03-05T10:47:03.868Z,49.60
2019-03-05T10:48:36.360Z,49.30
2019-03-05T10:50:15.348Z,49.30
2019-03-05T10:51:42.839Z,49.20
2019-03-05T10:53:15.335Z,49.10
2019-03-05T10:54:47.825Z,49.00
2019-03-05T10:56:20.260Z,48.80
2019-03-05T10:57:52.870Z,48.70
2019-03-05T10:59:25.313Z,48.50
2019-03-05T11:00:57.740Z,48.20
2019-03-05T11:02:30.249Z,48.20
2019-03-05T11:04:02.738Z,48.00
2019-03-05T11:05:35.217Z,48.00
2019-03-05T11:07:07.732Z,47.90
2019-03-05T11:08:40.228Z,47.80
2019-03-05T11:10:12.640Z,47.60
2019-03-05T11:11:45.123Z,47.50
2019-03-05T11:13:17.490Z,47.20
2019-03-05T11:14:49.821Z,47.00
2019-03-05T11:16:30.312Z,47.00
2019-03-05T11:17:56.538Z,46.60
2019-03-05T11:19:28.947Z,46.30
2019-03-05T11:21:01.366Z,46.20
2019-03-05T11:22:33.792Z,46.00
2019-03-05T11:24:06.223Z,45.60
2019-03-05T11:25:38.626Z,45.20
2019-03-05T11:27:11.112Z,45.10
2019-03-05T11:28:43.458Z,45.00
2019-03-05T11:30:15.871Z,44.90
2019-03-05T11:31:48.657Z,44.80
2019-03-05T11:33:21.017Z,44.60
2019-03-05T11:34:53.536Z,44.50
2019-03-05T11:36:26.039Z,44.30
2019-03-05T11:37:58.451Z,44.00
2019-03-05T11:39:30.885Z,43.60
2019-03-05T11:41:03.387Z,44.00
2019-03-05T11:42:35.791Z,43.00
2019-03-05T11:44:08.311Z,42.80
2019-03-05T11:45:40.726Z,42.70
2019-03-05T11:47:13.056Z,42.50
2019-03-05T11:48:45.634Z,42.50
2019-03-05T11:50:18.105Z,42.40
2019-03-05T11:51:50.543Z,42.30
2019-03-05T11:53:25.041Z,42.30
2019-03-05T11:54:57.645Z,42.40
2019-03-05T11:56:30.096Z,42.30
2019-03-05T11:58:05.483Z,42.50
2019-03-05T11:59:38.097Z,42.60
2019-03-05T12:01:10.565Z,42.70
2019-03-05T12:02:43.018Z,42.90
2019-03-05T12:04:15.606Z,42.90
2019-03-05T12:05:48.164Z,42.80
2019-03-05T12:07:20.642Z,42.60
2019-03-05T12:08:53.179Z,42.60
2019-03-05T12:10:25.599Z,42.60
2019-03-05T12:11:58.260Z,42.50
2019-03-05T12:13:36.455Z,42.30
2019-03-05T12:15:10.879Z,42.40
2019-03-05T12:16:55.813Z,42.40
2019-03-05T12:18:30.104Z,42.40
2019-03-05T12:20:02.587Z,42.60
2019-03-05T12:21:35.079Z,42.70
2019-03-05T12:23:10.339Z,41.80
2019-03-05T12:25:01.953Z,41.60
2019-03-05T12:26:36.747Z,41.10
2019-03-05T12:28:10.626Z,41.00
2019-03-05T12:29:43.535Z,40.90
2019-03-05T12:31:16.043Z,40.70
2019-03-05T12:32:48.547Z,40.70
2019-03-05T12:34:20.886Z,40.90
2019-03-05T12:35:53.227Z,40.80
2019-03-05T12:37:25.695Z,41.50
2019-03-05T12:38:58.194Z,41.20
2019-03-05T12:40:30.616Z,41.50
2019-03-05T12:42:03.736Z,41.50
2019-03-05T12:43:36.431Z,41.70
2019-03-05T12:45:08.920Z,41.60
2019-03-05T12:46:41.569Z,41.50
2019-03-05T12:48:14.076Z,41.50
2019-03-05T12:49:46.739Z,41.50
2019-03-05T12:51:19.146Z,41.40
2019-03-05T12:52:51.612Z,41.40
2019-03-05T12:54:23.947Z,41.10
2019-03-05T12:55:56.357Z,41.00
2019-03-05T12:57:29.559Z,40.90
2019-03-05T12:59:01.972Z,41.00
2019-03-05T13:00:34.386Z,41.00
2019-03-05T13:02:06.876Z,41.00
2019-03-05T13:03:39.320Z,41.00
2019-03-05T13:05:11.748Z,41.20
2019-03-05T13:06:44.232Z,41.10
2019-03-05T13:08:16.678Z,41.20
2019-03-05T13:09:52.591Z,41.10
2019-03-05T13:11:23.368Z,41.20
2019-03-05T13:12:55.826Z,41.20
2019-03-05T13:14:28.319Z,41.30
2019-03-05T13:16:00.661Z,41.50
2019-03-05T13:17:32.992Z,41.40
2019-03-05T13:19:09.551Z,41.40
2019-03-05T13:20:39.520Z,41.60
2019-03-05T13:22:12.052Z,41.70
2019-03-05T13:23:44.501Z,41.90
2019-03-05T13:25:16.952Z,41.90
2019-03-05T13:26:49.342Z,42.10
2019-03-05T13:28:21.749Z,42.00
2019-03-05T13:29:54.171Z,42.10
2019-03-05T13:31:26.507Z,42.10
2019-03-05T13:33:00.652Z,42.10
2019-03-05T13:34:33.080Z,42.10
2019-03-05T13:36:12.078Z,42.00
2019-03-05T13:37:39.533Z,42.20
2019-03-05T13:39:23.876Z,42.20
2019-03-05T13:40:56.602Z,42.20
2019-03-05T13:42:33.274Z,42.30
2019-03-05T13:44:06.484Z,42.30
2019-03-05T13:45:42.338Z,42.30
2019-03-05T13:47:13.618Z,42.30
2019-03-05T13:48:57.760Z,42.30
2019-03-05T13:50:24.247Z,42.30
2019-03-05T13:51:59.604Z,42.20
2019-03-05T13:53:31.122Z,42.10
2019-03-05T13:55:03.530Z,42.10
2019-03-05T13:56:37.745Z,42.00
2019-03-05T13:58:10.251Z,42.00
2019-03-05T13:59:42.736Z,42.00
2019-03-05T14:01:15.384Z,42.00
2019-03-05T14:02:52.968Z,42.00
2019-03-05T14:04:21.929Z,42.00
2019-03-05T14:05:54.372Z,42.00
2019-03-05T14:07:26.926Z,42.10
2019-03-05T14:08:59.527Z,42.10
2019-03-05T14:10:31.929Z,42.00
2019-03-05T14:12:04.476Z,42.00
2019-03-05T14:13:36.948Z,42.00
2019-03-05T14:15:09.340Z,42.00
2019-03-05T14:16:41.831Z,42.00
2019-03-05T14:18:14.589Z,42.00
2019-03-05T14:19:47.159Z,42.00
2019-03-05T14:21:19.701Z,42.10
2019-03-05T14:22:52.121Z,42.00
2019-03-05T14:24:24.564Z,42.20
2019-03-05T14:25:57.009Z,42.20
2019-03-05T14:27:29.415Z,42.20
2019-03-05T14:29:01.771Z,42.20
2019-03-05T14:30:34.272Z,42.30
2019-03-05T14:32:06.787Z,42.20
2019-03-05T14:33:39.580Z,42.20
2019-03-05T14:35:12.039Z,42.30
2019-03-05T14:36:44.522Z,42.30
2019-03-05T14:38:17.000Z,42.40
2019-03-05T14:39:49.438Z,42.30
2019-03-05T14:41:21.964Z,42.30
2019-03-05T14:42:54.377Z,42.50
2019-03-05T14:44:31.277Z,42.50
2019-03-05T14:46:01.019Z,42.50
2019-03-05T14:47:33.495Z,42.60
2019-03-05T14:49:05.966Z,42.70
2019-03-05T14:50:38.446Z,42.70
2019-03-05T14:52:10.895Z,42.80
2019-03-05T14:53:43.350Z,42.90
2019-03-05T14:55:15.836Z,42.90
2019-03-05T14:56:48.289Z,43.00
2019-03-05T14:58:20.744Z,43.10
2019-03-05T14:59:53.525Z,43.20
2019-03-05T15:01:25.950Z,43.30
2019-03-05T15:02:58.396Z,43.30
2019-03-05T15:04:30.906Z,43.40
2019-03-05T15:06:03.323Z,43.50
2019-03-05T15:07:35.852Z,43.40
2019-03-05T15:09:08.319Z,43.80
2019-03-05T15:10:40.775Z,43.40
2019-03-05T15:12:13.264Z,43.40
2019-03-05T15:13:45.710Z,43.50
2019-03-05T15:15:18.105Z,43.40
2019-03-05T15:16:50.527Z,43.50
2019-03-05T15:18:23.046Z,43.50
2019-03-05T15:19:55.508Z,43.40
2019-03-05T15:21:28.210Z,43.50
2019-03-05T15:23:00.679Z,43.50
2019-03-05T15:24:33.142Z,43.50
2019-03-05T15:26:05.608Z,43.50
2019-03-05T15:27:38.046Z,43.50
2019-03-05T15:29:10.469Z,43.60
2019-03-05T15:30:42.944Z,43.60
2019-03-05T15:32:15.877Z,43.60
2019-03-05T15:33:51.728Z,43.70
2019-03-05T15:35:24.313Z,43.60
2019-03-05T15:36:56.851Z,43.70
2019-03-05T15:38:29.329Z,43.70
2019-03-05T15:40:01.892Z,43.70
2019-03-05T15:41:34.379Z,43.70
2019-03-05T15:43:06.805Z,43.80
2019-03-05T15:44:39.704Z,43.80
2019-03-05T15:46:12.286Z,43.90
2019-03-05T15:47:44.737Z,44.00
2019-03-05T15:49:17.286Z,44.00
2019-03-05T15:50:49.989Z,44.30
2019-03-05T15:52:22.491Z,44.30
2019-03-05T15:53:54.988Z,44.60
2019-03-05T15:55:27.533Z,44.70
2019-03-05T15:56:59.944Z,45.00
2019-03-05T15:58:32.504Z,45.40
2019-03-05T16:00:05.008Z,45.70
2019-03-05T16:01:37.408Z,46.10
2019-03-05T16:03:09.911Z,47.10
2019-03-05T16:04:44.949Z,46.70
2019-03-05T16:06:17.357Z,47.20
2019-03-05T16:07:53.764Z,47.60
2019-03-05T16:09:34.967Z,47.90
2019-03-05T16:11:17.146Z,48.20
2019-03-05T16:12:54.334Z,48.50
2019-03-05T16:14:29.627Z,48.60
2019-03-05T16:16:01.155Z,48.80
2019-03-05T16:17:35.262Z,49.00
2019-03-05T16:19:07.799Z,49.10
2019-03-05T16:20:40.364Z,49.30
2019-03-05T16:22:18.239Z,49.50
2019-03-05T16:23:54.375Z,49.60
2019-03-05T16:25:35.910Z,49.60
2019-03-05T16:27:12.545Z,49.80
2019-03-05T16:28:45.123Z,49.80
2019-03-05T16:30:17.700Z,49.90
2019-03-05T16:31:51.280Z,50.00
2019-03-05T16:33:42.663Z,50.10
2019-03-05T16:35:28.648Z,50.10
2019-03-05T16:37:02.058Z,50.20
2019-03-05T16:38:35.369Z,50.30
2019-03-05T16:40:08.953Z,50.50
2019-03-05T16:41:41.630Z,50.70
2019-03-05T16:43:14.364Z,50.90
2019-03-05T16:44:48.385Z,51.10
2019-03-05T16:46:20.917Z,51.20
2019-03-05T16:47:53.770Z,51.50
2019-03-05T16:49:26.393Z,51.70
2019-03-05T16:50:58.972Z,51.90
2019-03-05T16:52:31.391Z,52.10
2019-03-05T16:54:04.089Z,52.50
2019-03-05T16:55:36.732Z,52.60
2019-03-05T16:57:09.375Z,52.80
2019-03-05T16:58:41.847Z,53.00
2019-03-05T17:00:14.248Z,53.20
2019-03-05T17:01:46.747Z,53.40
2019-03-05T17:03:19.190Z,53.60
2019-03-05T17:04:51.689Z,53.90
2019-03-05T17:06:24.167Z,53.90
2019-03-05T17:07:56.607Z,54.10
2019-03-05T17:09:29.081Z,54.30
2019-03-05T17:11:01.759Z,54.60
2019-03-05T17:12:34.239Z,54.80
2019-03-05T17:14:06.657Z,54.90
2019-03-05T17:15:39.129Z,55.00
2019-03-05T17:17:11.531Z,55.30
2019-03-05T17:18:44.050Z,55.50
2019-03-05T17:20:16.613Z,55.60
2019-03-05T17:21:49.077Z,55.80
2019-03-05T17:23:40.451Z,56.00
2019-03-05T17:25:31.145Z,56.10
2019-03-05T17:27:22.441Z,56.20
2019-03-05T17:29:00.513Z,56.40
2019-03-05T17:30:33.034Z,56.60
2019-03-05T17:32:06.556Z,56.80
2019-03-05T17:33:40.603Z,57.00
2019-03-05T17:35:13.095Z,57.10
2019-03-05T17:36:45.494Z,57.20
2019-03-05T17:38:17.912Z,57.40
2019-03-05T17:39:50.767Z,57.50
2019-03-05T17:41:23.422Z,57.60
2019-03-05T17:42:55.890Z,57.80
2019-03-05T17:44:28.471Z,57.80
2019-03-05T17:46:00.911Z,58.60
2019-03-05T17:47:33.500Z,58.20
2019-03-05T17:49:07.962Z,58.20
2019-03-05T17:50:41.022Z,58.30
2019-03-05T17:52:13.346Z,58.40
2019-03-05T17:53:45.819Z,58.50
2019-03-05T17:55:24.583Z,58.70
2019-03-05T17:56:52.355Z,58.70
2019-03-05T17:58:24.755Z,58.80
2019-03-05T17:59:57.328Z,59.00
2019-03-05T18:01:29.682Z,59.00
2019-03-05T18:03:02.447Z,59.10
2019-03-05T18:04:34.930Z,59.30
2019-03-05T18:06:07.375Z,59.30
2019-03-05T18:07:39.865Z,59.30
2019-03-05T18:09:12.754Z,59.30
2019-03-05T18:10:45.175Z,59.40
2019-03-05T18:12:17.610Z,59.40
2019-03-05T18:13:50.076Z,59.50
2019-03-05T18:15:23.630Z,59.50
2019-03-05T18:16:56.015Z,59.50
2019-03-05T18:18:30.693Z,59.70
2019-03-05T18:20:05.338Z,59.80
2019-03-05T18:21:43.448Z,59.80
2019-03-05T18:23:18.395Z,60.00
2019-03-05T18:24:51.436Z,60.20
2019-03-05T18:26:24.672Z,60.30
2019-03-05T18:27:57.811Z,60.40
2019-03-05T18:29:34.874Z,60.70
2019-03-05T18:31:09.958Z,60.90
2019-03-05T18:32:42.488Z,61.20
2019-03-05T18:34:18.788Z,61.40
2019-03-05T18:35:51.290Z,61.50
2019-03-05T18:37:33.450Z,61.60
2019-03-05T18:39:08.826Z,61.60
2019-03-05T18:40:43.504Z,61.80
2019-03-05T18:42:16.464Z,61.70
2019-03-05T18:43:49.226Z,62.90
2019-03-05T18:45:22.299Z,62.10
2019-03-05T18:46:56.764Z,62.20
2019-03-05T18:48:29.288Z,62.40
2019-03-05T18:50:04.180Z,62.50
2019-03-05T18:51:41.550Z,62.60
2019-03-05T18:53:17.866Z,62.70
2019-03-05T18:54:50.704Z,62.70
2019-03-05T18:56:23.315Z,62.80
2019-03-05T18:58:01.018Z,63.00
2019-03-05T18:59:37.123Z,62.90
2019-03-05T19:01:14.942Z,63.00
2019-03-05T19:02:55.654Z,63.20
2019-03-05T19:04:26.777Z,63.30
2019-03-05T19:06:05.550Z,63.30
2019-03-05T19:07:39.407Z,63.30
2019-03-05T19:09:12.140Z,63.50
2019-03-05T19:10:44.619Z,63.50
2019-03-05T19:12:19.576Z,63.60
2019-03-05T19:13:51.991Z,63.80
2019-03-05T19:15:25.742Z,63.70
2019-03-05T19:16:58.166Z,63.90
2019-03-05T19:18:30.582Z,64.70
2019-03-05T19:20:03.180Z,64.50
2019-03-05T19:21:35.879Z,64.00
2019-03-05T19:23:08.209Z,63.90
2019-03-05T19:24:40.680Z,64.10
2019-03-05T19:26:13.200Z,64.20
2019-03-05T19:27:45.602Z,64.30
2019-03-05T19:29:18.058Z,64.40
2019-03-05T19:30:50.475Z,64.50
2019-03-05T19:32:22.982Z,64.50
2019-03-05T19:33:55.379Z,64.50
2019-03-05T19:35:27.785Z,64.70
2019-03-05T19:37:00.215Z,64.70
2019-03-05T19:38:32.814Z,64.70
2019-03-05T19:40:05.295Z,64.70
2019-03-05T19:41:37.857Z,64.80
2019-03-05T19:43:10.315Z,64.90
2019-03-05T19:44:42.804Z,64.80
2019-03-05T19:46:15.301Z,64.80
2019-03-05T19:47:47.711Z,64.90
2019-03-05T19:49:20.174Z,65.00
2019-03-05T19:50:52.785Z,65.00
2019-03-05T19:52:25.539Z,65.10
2019-03-05T19:54:00.601Z,65.10
2019-03-05T19:55:33.007Z,65.20
2019-03-05T19:57:05.679Z,65.20
2019-03-05T19:58:38.172Z,65.30
2019-03-05T20:00:10.701Z,65.40